createdAt,value
2022-11-16T00:01:31.371Z,101079.97
2022-11-16T00:04:03.884Z,101087.81
2022-11-16T00:06:34.259Z,101075.63
2022-11-16T00:09:23.143Z,101080.84
2022-11-16T00:11:55.932Z,101092.13
2022-11-16T00:14:28.945Z,101085.19
2022-11-16T00:17:00.222Z,101081.69
2022-11-16T00:19:31.006Z,101071.31
2022-11-16T00:22:01.615Z,101065.25
2022-11-16T00:24:31.860Z,101077.38
2022-11-16T00:27:02.244Z,101073.06
2022-11-16T00:29:32.545Z,101066.09
2022-11-16T00:32:03.137Z,101070.41
2022-11-16T00:34:33.392Z,101072.97
2022-11-16T00:37:03.759Z,101077.34
2022-11-16T00:39:36.838Z,101077.31
2022-11-16T00:42:07.126Z,101077.31
2022-11-16T00:44:37.480Z,101074.69
2022-11-16T00:47:07.905Z,101084.22
2022-11-16T00:49:38.817Z,101085.09
2022-11-16T00:52:09.162Z,101079.00
2022-11-16T00:54:39.458Z,101078.19
2022-11-16T00:57:09.844Z,101083.34
2022-11-16T00:59:40.083Z,101080.78
2022-11-16T01:02:10.581Z,101087.72
2022-11-16T01:04:41.175Z,101079.88
2022-11-16T01:07:12.277Z,101086.81
2022-11-16T01:09:42.663Z,101076.41
2022-11-16T01:12:13.284Z,101084.22
2022-11-16T01:14:46.249Z,101076.38
2022-11-16T01:17:16.586Z,101092.00
2022-11-16T01:19:46.947Z,101086.78
2022-11-16T01:22:17.270Z,101088.50
2022-11-16T01:24:47.965Z,101085.88
2022-11-16T01:27:18.301Z,101090.19
2022-11-16T01:29:48.755Z,101100.59
2022-11-16T01:32:19.140Z,101088.44
2022-11-16T01:34:49.941Z,101095.38
2022-11-16T01:37:20.307Z,101091.06
2022-11-16T01:39:51.483Z,101091.06
2022-11-16T01:42:24.808Z,101095.38
2022-11-16T01:44:57.189Z,101092.78
2022-11-16T01:47:28.026Z,101088.44
2022-11-16T01:50:16.288Z,101086.75
2022-11-16T01:52:57.498Z,101082.38
2022-11-16T01:55:31.253Z,101084.13
2022-11-16T01:58:02.847Z,101070.25
2022-11-16T02:00:33.932Z,101078.06
2022-11-16T02:03:04.282Z,101076.31
2022-11-16T02:05:50.514Z,101068.47
2022-11-16T02:09:16.114Z,101076.28
2022-11-16T02:12:11.688Z,101071.09
2022-11-16T02:14:53.164Z,101074.53
2022-11-16T02:18:14.106Z,101073.69
2022-11-16T02:20:52.466Z,101064.13
2022-11-16T02:23:41.916Z,101071.88
2022-11-16T02:26:23.072Z,101071.00
2022-11-16T02:29:08.033Z,101071.00
2022-11-16T02:31:42.763Z,101061.47
2022-11-16T02:34:16.909Z,101062.31
2022-11-16T02:36:51.902Z,101056.28
2022-11-16T02:39:27.317Z,101051.13
2022-11-16T02:41:59.655Z,101044.13
2022-11-16T02:44:34.853Z,101055.44
2022-11-16T02:47:09.645Z,101047.63
2022-11-16T02:49:45.459Z,101053.69
2022-11-16T02:52:18.113Z,101049.34
2022-11-16T02:54:48.236Z,101040.66
2022-11-16T02:57:37.718Z,101042.41
2022-11-16T03:00:10.240Z,101049.34
2022-11-16T03:02:54.252Z,101048.44
2022-11-16T03:05:33.670Z,101031.06
2022-11-16T03:08:15.894Z,101037.16
2022-11-16T03:11:10.169Z,101037.16
2022-11-16T03:13:41.071Z,101027.63
2022-11-16T03:16:27.701Z,101028.50
2022-11-16T03:19:00.536Z,101029.41
2022-11-16T03:21:59.641Z,101030.25
2022-11-16T03:24:30.117Z,101033.69
2022-11-16T03:27:25.781Z,101029.31
2022-11-16T03:30:04.807Z,101027.56
2022-11-16T03:32:49.396Z,101032.78
2022-11-16T03:35:34.714Z,101028.38
2022-11-16T03:38:08.045Z,101022.31
2022-11-16T03:40:40.826Z,101026.66
2022-11-16T03:43:11.446Z,101024.94
2022-11-16T03:45:41.873Z,101033.59
2022-11-16T03:48:12.148Z,101030.13
2022-11-16T03:50:43.270Z,101039.66
2022-11-16T03:53:13.394Z,101032.72
2022-11-16T03:55:49.621Z,101028.41
2022-11-16T03:58:20.056Z,101037.06
2022-11-16T04:00:50.379Z,101044.84
2022-11-16T04:03:21.137Z,101033.56
2022-11-16T04:06:09.861Z,101047.44
2022-11-16T04:08:58.427Z,101051.72
2022-11-16T04:11:47.037Z,101055.22
2022-11-16T04:14:41.597Z,101052.63
2022-11-16T04:17:37.581Z,101049.19
2022-11-16T04:20:31.930Z,101041.34
2022-11-16T04:23:35.291Z,101040.41
2022-11-16T04:26:08.561Z,101042.16
2022-11-16T04:28:39.797Z,101047.38
2022-11-16T04:31:28.660Z,101042.16
2022-11-16T04:34:17.461Z,101024.84
2022-11-16T04:37:06.247Z,101037.84
2022-11-16T04:39:36.347Z,101035.25
2022-11-16T04:42:19.295Z,101025.69
2022-11-16T04:45:07.779Z,101039.56
2022-11-16T04:47:37.969Z,101014.41
2022-11-16T04:50:08.391Z,101036.06
2022-11-16T04:52:38.515Z,101038.66
2022-11-16T04:55:09.169Z,101032.56
2022-11-16T04:57:39.799Z,101035.16
2022-11-16T05:00:10.839Z,101040.34
2022-11-16T05:02:41.368Z,101038.63
2022-11-16T05:05:12.283Z,101038.63
2022-11-16T05:07:43.007Z,101039.47
2022-11-16T05:10:14.690Z,101033.38
2022-11-16T05:12:44.915Z,101029.06
2022-11-16T05:15:15.188Z,101019.47
2022-11-16T05:17:45.683Z,101040.28
2022-11-16T05:20:34.596Z,101031.59
2022-11-16T05:23:05.018Z,101020.34
2022-11-16T05:25:36.988Z,101027.28
2022-11-16T05:28:07.261Z,101028.13
2022-11-16T05:30:37.412Z,101036.78
2022-11-16T05:33:07.489Z,101039.38
2022-11-16T05:35:37.653Z,101033.31
2022-11-16T05:38:07.765Z,101031.53
2022-11-16T05:40:38.503Z,101034.13
2022-11-16T05:43:08.663Z,101049.63
2022-11-16T05:45:38.925Z,101040.09
2022-11-16T05:48:09.050Z,101051.38
2022-11-16T05:50:42.786Z,101040.13
2022-11-16T05:53:13.468Z,101050.50
2022-11-16T05:55:43.811Z,101053.06
2022-11-16T05:58:13.910Z,101052.19
2022-11-16T06:00:47.151Z,101048.75
2022-11-16T06:03:17.370Z,101053.09
2022-11-16T06:05:47.664Z,101042.69
2022-11-16T06:08:17.857Z,101052.22
2022-11-16T06:10:49.000Z,101049.59
2022-11-16T06:13:19.547Z,101040.88
2022-11-16T06:15:55.357Z,101060.84
2022-11-16T06:18:25.970Z,101059.97
2022-11-16T06:20:56.505Z,101054.75
2022-11-16T06:23:26.623Z,101050.41
2022-11-16T06:25:57.118Z,101046.00
2022-11-16T06:28:28.291Z,101069.50
2022-11-16T06:30:58.481Z,101059.06
2022-11-16T06:33:33.389Z,101069.53
2022-11-16T06:36:04.342Z,101014.72
2022-11-16T06:38:34.798Z,101064.19
2022-11-16T06:41:05.264Z,101069.41
2022-11-16T06:43:35.388Z,101062.44
2022-11-16T06:46:05.705Z,101069.34
2022-11-16T06:48:36.058Z,101064.91
2022-11-16T06:51:06.609Z,101074.47
2022-11-16T06:53:36.714Z,101070.06
2022-11-16T06:56:07.244Z,101082.06
2022-11-16T06:58:37.643Z,101076.75
2022-11-16T07:01:09.997Z,101082.81
2022-11-16T07:03:40.186Z,101074.19
2022-11-16T07:06:12.432Z,101088.13
2022-11-16T07:08:42.811Z,101082.13
2022-11-16T07:11:12.931Z,101080.41
2022-11-16T07:13:43.146Z,101073.50
2022-11-16T07:16:13.326Z,101080.38
2022-11-16T07:18:43.501Z,101075.03
2022-11-16T07:21:15.853Z,101044.66
2022-11-16T07:23:45.998Z,101076.88
2022-11-16T07:26:16.217Z,101087.31
2022-11-16T07:28:48.446Z,101084.75
2022-11-16T07:31:18.902Z,101088.16
2022-11-16T07:33:49.010Z,101076.84
2022-11-16T07:36:19.426Z,101088.97
2022-11-16T07:38:49.605Z,101097.63
2022-11-16T07:41:20.127Z,101071.66
2022-11-16T07:43:53.222Z,101082.91
2022-11-16T07:49:15.926Z,101071.69
2022-11-16T07:51:46.609Z,101056.91
2022-11-16T07:54:16.729Z,101077.69
2022-11-16T07:56:46.796Z,101076.88
2022-11-16T07:59:17.075Z,101061.25
2022-11-16T08:01:48.133Z,101070.00
2022-11-16T08:04:18.468Z,101073.44
2022-11-16T08:06:51.090Z,101072.56
2022-11-16T08:09:21.348Z,101049.81
2022-11-16T08:11:55.065Z,101082.84
2022-11-16T08:14:25.231Z,101082.81
2022-11-16T08:16:55.409Z,101082.81
2022-11-16T08:19:25.530Z,101092.25
2022-11-16T08:21:55.772Z,101090.53
2022-11-16T08:24:26.075Z,101092.09
2022-11-16T08:26:57.502Z,101076.47
2022-11-16T08:29:30.185Z,101085.28
2022-11-16T08:32:00.362Z,101089.66
2022-11-16T08:34:30.540Z,101093.16
2022-11-16T08:37:00.764Z,101077.59
2022-11-16T08:39:30.921Z,101097.53
2022-11-16T08:42:01.327Z,101097.50
2022-11-16T08:44:31.579Z,101108.63
2022-11-16T08:47:01.717Z,101103.38
2022-11-16T08:49:31.798Z,101106.00
2022-11-16T08:52:01.910Z,101091.34
2022-11-16T08:54:32.478Z,101103.44
2022-11-16T08:57:02.585Z,101099.06
2022-11-16T08:59:32.911Z,101102.59
2022-11-16T09:02:03.121Z,101103.44
2022-11-16T09:04:37.016Z,101100.84
2022-11-16T09:07:07.496Z,101103.44
2022-11-16T09:09:37.660Z,101101.66
2022-11-16T09:12:07.872Z,101104.34
2022-11-16T09:14:38.005Z,101107.66
2022-11-16T09:17:11.123Z,101118.78
2022-11-16T09:19:41.287Z,101123.88
2022-11-16T09:22:13.516Z,101115.22
2022-11-16T09:24:45.473Z,101116.91
2022-11-16T09:27:19.147Z,101111.75
2022-11-16T09:29:56.501Z,101109.16
2022-11-16T09:32:27.862Z,101094.44
2022-11-16T09:34:58.918Z,101114.47
2022-11-16T09:37:29.828Z,101105.81
2022-11-16T09:40:01.148Z,101109.28
2022-11-16T09:43:09.116Z,101093.66
2022-11-16T09:45:50.914Z,101102.38
2022-11-16T09:48:23.933Z,101096.38
2022-11-16T09:51:08.576Z,101091.22
2022-11-16T09:54:20.696Z,101085.16
2022-11-16T09:56:57.701Z,101080.03
2022-11-16T09:59:42.143Z,101085.16
2022-11-16T10:02:36.201Z,101093.84
2022-11-16T10:05:23.578Z,101089.56
2022-11-16T10:08:13.976Z,101087.91
2022-11-16T10:11:23.060Z,101095.75
2022-11-16T10:14:23.402Z,101090.53
2022-11-16T10:17:26.916Z,101093.03
2022-11-16T10:20:17.277Z,101081.72
2022-11-16T10:22:58.774Z,101088.63
2022-11-16T10:25:48.685Z,101095.41
2022-11-16T10:28:34.283Z,101098.78
2022-11-16T10:31:37.057Z,101095.31
2022-11-16T10:34:14.149Z,101090.91
2022-11-16T10:36:46.427Z,101076.97
2022-11-16T10:39:22.135Z,101091.78
2022-11-16T10:41:54.610Z,101084.84
2022-11-16T10:44:39.051Z,101092.63
2022-11-16T10:47:35.485Z,101087.34
2022-11-16T10:50:17.390Z,101092.50
2022-11-16T10:52:48.261Z,101092.44
2022-11-16T10:55:22.566Z,101084.47
2022-11-16T10:58:04.311Z,101082.69
2022-11-16T11:00:40.248Z,101082.59
2022-11-16T11:03:12.112Z,101086.78
2022-11-16T11:05:55.258Z,101084.91
2022-11-16T11:08:33.364Z,101078.69
2022-11-16T11:11:24.877Z,101070.91
2022-11-16T11:14:21.834Z,101080.38
2022-11-16T11:16:54.886Z,101053.44
2022-11-16T11:19:27.953Z,101082.06
2022-11-16T11:22:01.239Z,101091.56
2022-11-16T11:24:45.725Z,101087.13
2022-11-16T11:27:23.375Z,101087.88
2022-11-16T11:29:55.817Z,101084.44
2022-11-16T11:32:39.028Z,101071.34
2022-11-16T11:35:29.314Z,101066.19
2022-11-16T11:38:07.748Z,101083.38
2022-11-16T11:40:38.792Z,101068.53
2022-11-16T11:43:22.365Z,101086.75
2022-11-16T11:46:09.246Z,101073.78
2022-11-16T11:49:00.189Z,101071.25
2022-11-16T11:51:35.249Z,101079.94
2022-11-16T11:54:08.155Z,101079.97
2022-11-16T11:56:38.763Z,101079.00
2022-11-16T11:59:15.965Z,101071.28
2022-11-16T12:02:00.783Z,101075.59
2022-11-16T12:04:50.180Z,101086.78
2022-11-16T12:07:35.429Z,101091.09
2022-11-16T12:10:25.584Z,101086.88
2022-11-16T12:13:26.483Z,101086.91
2022-11-16T12:16:27.326Z,101069.66
2022-11-16T12:19:26.957Z,101084.44
2022-11-16T12:22:11.982Z,101077.31
2022-11-16T12:24:51.095Z,101076.38
2022-11-16T12:27:32.883Z,101071.97
2022-11-16T12:30:21.474Z,101057.63
2022-11-16T12:33:05.242Z,101074.44
2022-11-16T12:36:03.402Z,101066.75
2022-11-16T12:38:42.583Z,101076.63
2022-11-16T12:41:24.758Z,101068.53
2022-11-16T12:44:08.123Z,101063.91
2022-11-16T12:46:41.178Z,101062.97
2022-11-16T12:49:56.045Z,101060.38
2022-11-16T12:52:44.221Z,101055.28
2022-11-16T12:55:33.810Z,101058.63
2022-11-16T12:58:27.972Z,101054.09
2022-11-16T13:01:29.085Z,101055.31
2022-11-16T13:04:12.778Z,101061.47
2022-11-16T13:07:10.878Z,101053.91
2022-11-16T13:09:48.038Z,101060.97
2022-11-16T13:12:23.732Z,101060.16
2022-11-16T13:14:56.395Z,101057.28
2022-11-16T13:17:33.684Z,101048.59
2022-11-16T13:20:32.556Z,101066.00
2022-11-16T13:23:40.188Z,101053.16
2022-11-16T13:26:18.650Z,101059.84
2022-11-16T13:29:00.418Z,101056.31
2022-11-16T13:31:44.661Z,101073.22
2022-11-16T13:34:24.998Z,101057.44
2022-11-16T13:36:55.218Z,101059.91
2022-11-16T13:39:56.426Z,101054.94
2022-11-16T13:42:27.194Z,101049.66
2022-11-16T13:45:17.982Z,101058.19
2022-11-16T13:47:54.022Z,101056.44
2022-11-16T13:50:37.753Z,101052.03
2022-11-16T13:56:09.376Z,101063.53
2022-11-16T13:58:46.473Z,101067.72
2022-11-16T14:01:17.654Z,101067.25
2022-11-16T14:03:52.611Z,101070.94
2022-11-16T14:06:22.734Z,101068.56
2022-11-16T14:08:56.704Z,101067.78
2022-11-16T14:11:39.537Z,101064.41
2022-11-16T14:14:33.906Z,101070.69
2022-11-16T14:17:04.151Z,101070.06
2022-11-16T14:19:44.428Z,101067.44
2022-11-16T14:22:20.374Z,101065.78
2022-11-16T14:25:06.770Z,101062.34
2022-11-16T14:27:57.131Z,101074.50
2022-11-16T14:30:51.149Z,101053.56
2022-11-16T14:33:39.501Z,101065.72
2022-11-16T14:36:11.469Z,101058.13
2022-11-16T14:38:43.857Z,101056.31
2022-11-16T14:41:27.342Z,101061.56
2022-11-16T14:43:58.709Z,101047.81
2022-11-16T14:46:34.920Z,101057.41
2022-11-16T14:49:05.473Z,101060.03
2022-11-16T14:51:39.257Z,101052.06
2022-11-16T14:54:40.498Z,101056.53
2022-11-16T14:57:19.550Z,101061.53
2022-11-16T15:00:06.391Z,101064.91
2022-11-16T15:02:37.397Z,101067.69
2022-11-16T15:05:07.929Z,101064.97
2022-11-16T15:07:38.649Z,101046.41
2022-11-16T15:10:16.642Z,101075.13
2022-11-16T15:12:51.793Z,101061.41
2022-11-16T15:15:28.193Z,101064.06
2022-11-16T15:18:01.060Z,101065.94
2022-11-16T15:20:34.089Z,101070.16
2022-11-16T15:23:06.256Z,101057.22
2022-11-16T15:25:54.448Z,101062.44
2022-11-16T15:28:27.353Z,101070.28
2022-11-16T15:31:00.850Z,101070.19
2022-11-16T15:33:39.366Z,101071.81
2022-11-16T15:36:38.005Z,101070.94
2022-11-16T15:39:20.641Z,101066.69
2022-11-16T15:41:52.041Z,101060.53
2022-11-16T15:44:23.766Z,101065.78
2022-11-16T15:46:56.187Z,101057.81
2022-11-16T15:49:32.054Z,101057.88
2022-11-16T15:52:02.778Z,101053.53
2022-11-16T15:55:04.779Z,101054.38
2022-11-16T15:57:35.250Z,101059.63
2022-11-16T16:00:05.808Z,101056.19
2022-11-16T16:02:36.151Z,101063.94
2022-11-16T16:05:06.797Z,101072.56
2022-11-16T16:07:41.418Z,101052.44
2022-11-16T16:10:24.854Z,101063.22
2022-11-16T16:12:59.681Z,101059.69
2022-11-16T16:15:36.324Z,101064.91
2022-11-16T16:18:36.833Z,101057.88
2022-11-16T16:21:07.252Z,101062.06
2022-11-16T16:23:48.628Z,101063.88
2022-11-16T16:26:18.753Z,101052.59
2022-11-16T16:28:49.725Z,101055.38
2022-11-16T16:31:20.010Z,101054.50
2022-11-16T16:33:50.255Z,101043.22
2022-11-16T16:36:20.625Z,101044.94
2022-11-16T16:38:50.781Z,101062.22
2022-11-16T16:41:24.359Z,101069.88
2022-11-16T16:43:55.004Z,101077.56
2022-11-16T16:46:25.235Z,101062.84
2022-11-16T16:48:55.363Z,101071.59
2022-11-16T16:51:25.585Z,101073.25
2022-11-16T16:53:55.721Z,101081.56
2022-11-16T16:56:25.980Z,101067.78
2022-11-16T16:58:56.063Z,101073.84
2022-11-16T17:01:26.801Z,101061.75
2022-11-16T17:03:56.916Z,101070.50
2022-11-16T17:06:27.086Z,101067.88
2022-11-16T17:08:57.951Z,101071.41
2022-11-16T17:11:28.999Z,101068.06
2022-11-16T17:13:59.569Z,101068.75
2022-11-16T17:16:29.689Z,101066.25
2022-11-16T17:18:59.826Z,101058.50
2022-11-16T17:21:30.112Z,101057.47
2022-11-16T17:24:00.342Z,101061.72
2022-11-16T17:26:30.489Z,101061.72
2022-11-16T17:29:00.581Z,101054.88
2022-11-16T17:31:30.710Z,101054.84
2022-11-16T17:34:00.852Z,101064.50
2022-11-16T17:36:30.962Z,101064.56
2022-11-16T17:39:01.262Z,101068.09
2022-11-16T17:41:31.461Z,101066.97
2022-11-16T17:44:01.643Z,101062.63
2022-11-16T17:46:32.014Z,101066.97
2022-11-16T17:49:02.274Z,101073.75
2022-11-16T17:51:32.487Z,101076.41
2022-11-16T17:54:02.705Z,101079.78
2022-11-16T17:56:32.832Z,101063.28
2022-11-16T17:59:02.943Z,101070.03
2022-11-16T18:01:34.046Z,101088.25
2022-11-16T18:04:04.986Z,101081.28
2022-11-16T18:06:36.003Z,101080.41
2022-11-16T18:09:06.494Z,101069.94
2022-11-16T18:11:36.634Z,101078.78
2022-11-16T18:14:07.580Z,101082.31
2022-11-16T18:16:37.904Z,101076.19
2022-11-16T18:19:08.103Z,101073.63
2022-11-16T18:21:40.807Z,101049.25
2022-11-16T18:24:12.068Z,101067.59
2022-11-16T18:26:44.272Z,101070.19
2022-11-16T18:29:16.220Z,101071.13
2022-11-16T18:31:46.433Z,101072.94
2022-11-16T18:34:17.218Z,101072.13
2022-11-16T18:36:49.939Z,101068.44
2022-11-16T18:39:20.001Z,101075.38
2022-11-16T18:41:55.114Z,101064.09
2022-11-16T18:44:25.794Z,101062.47
2022-11-16T18:46:55.939Z,101068.66
2022-11-16T18:49:26.028Z,101065.16
2022-11-16T18:51:56.300Z,101071.03
2022-11-16T18:54:26.505Z,101062.47
2022-11-16T18:56:57.082Z,101067.66
2022-11-16T18:59:27.186Z,101065.88
2022-11-16T19:01:57.368Z,101060.72
2022-11-16T19:04:29.432Z,101058.78
2022-11-16T19:06:59.552Z,101050.84
2022-11-16T19:09:29.890Z,101065.00
2022-11-16T19:12:01.342Z,101072.84
2022-11-16T19:14:31.429Z,101065.88
2022-11-16T19:17:01.667Z,101076.19
2022-11-16T19:19:31.920Z,101070.94
2022-11-16T19:22:02.171Z,101068.25
2022-11-16T19:24:32.667Z,101066.50
2022-11-16T19:27:03.143Z,101077.78
2022-11-16T19:29:33.359Z,101065.63
2022-11-16T19:32:03.802Z,101063.88
2022-11-16T19:34:34.147Z,101068.16
2022-11-16T19:37:04.310Z,101071.44
2022-11-16T19:39:34.477Z,101073.88
2022-11-16T19:42:04.788Z,101081.66
2022-11-16T19:44:34.880Z,101079.13
2022-11-16T19:47:06.491Z,101067.84
2022-11-16T19:49:36.575Z,101060.78
2022-11-16T19:52:06.715Z,101069.47
2022-11-16T19:54:36.793Z,101063.38
2022-11-16T19:57:07.015Z,101066.91
2022-11-16T19:59:37.511Z,101054.75
2022-11-16T20:02:10.315Z,101059.88
2022-11-16T20:04:40.435Z,101065.78
2022-11-16T20:07:12.017Z,101057.91
2022-11-16T20:09:42.446Z,101061.25
2022-11-16T20:12:12.580Z,101065.28
2022-11-16T20:14:42.748Z,101066.88
2022-11-16T20:17:13.528Z,101068.41
2022-11-16T20:19:43.714Z,101064.84
2022-11-16T20:22:13.864Z,101068.19
2022-11-16T20:24:44.023Z,101077.81
2022-11-16T20:27:14.133Z,101073.47
2022-11-16T20:29:44.327Z,101069.22
2022-11-16T20:32:14.402Z,101074.50
2022-11-16T20:34:44.661Z,101071.06
2022-11-16T20:37:16.476Z,101077.00
2022-11-16T20:39:47.363Z,101075.06
2022-11-16T20:42:17.422Z,101082.03
2022-11-16T20:44:47.537Z,101089.09
2022-11-16T20:47:18.682Z,101079.69
2022-11-16T20:49:48.795Z,101091.88
2022-11-16T20:52:19.266Z,101090.13
2022-11-16T20:54:49.398Z,101086.56
2022-11-16T20:57:19.634Z,101096.19
2022-11-16T20:59:49.782Z,101077.88
2022-11-16T21:02:20.093Z,101083.22
2022-11-16T21:04:52.814Z,101097.97
2022-11-16T21:07:26.385Z,101089.41
2022-11-16T21:10:15.220Z,101097.91
2022-11-16T21:13:04.306Z,101089.19
2022-11-16T21:15:34.460Z,101091.88
2022-11-16T21:18:04.781Z,101104.84
2022-11-16T21:20:35.125Z,101097.91
2022-11-16T21:23:05.313Z,101084.91
2022-11-16T21:25:36.826Z,101097.28
2022-11-16T21:28:06.971Z,101099.94
2022-11-16T21:30:37.032Z,101106.88
2022-11-16T21:33:07.187Z,101098.06
2022-11-16T21:35:37.256Z,101095.31
2022-11-16T21:38:07.399Z,101084.81
2022-11-16T21:40:37.692Z,101094.47
2022-11-16T21:43:07.862Z,101091.84
2022-11-16T21:45:38.028Z,101082.44
2022-11-16T21:48:08.224Z,101084.47
2022-11-16T21:50:38.837Z,101092.38
2022-11-16T21:53:09.778Z,101087.16
2022-11-16T21:55:39.891Z,101093.34
2022-11-16T21:58:10.038Z,101089.03
2022-11-16T22:00:40.096Z,101096.78
2022-11-16T22:03:10.407Z,101095.88
2022-11-16T22:05:58.905Z,101095.06
2022-11-16T22:08:29.085Z,101089.06
2022-11-16T22:14:05.589Z,101086.25
2022-11-16T22:16:36.268Z,101088.22
2022-11-16T22:19:06.488Z,101094.84
2022-11-16T22:21:36.836Z,101093.97
2022-11-16T22:24:07.501Z,101092.97
2022-11-16T22:26:38.489Z,101103.50
2022-11-16T22:29:08.736Z,101088.72
2022-11-16T22:31:39.112Z,101103.66
2022-11-16T22:34:09.393Z,101109.66
2022-11-16T22:36:39.716Z,101108.75
2022-11-16T22:39:10.248Z,101096.63
2022-11-16T22:41:40.603Z,101101.94
2022-11-16T22:44:10.878Z,101098.56
2022-11-16T22:46:41.228Z,101103.78
2022-11-16T22:49:11.673Z,101095.22
2022-11-16T22:51:42.156Z,101093.72
2022-11-16T22:54:13.203Z,101091.97
2022-11-16T22:56:43.733Z,101098.81
2022-11-16T22:59:14.750Z,101103.91
2022-11-16T23:01:44.993Z,101103.91
2022-11-16T23:04:15.379Z,101102.81
2022-11-16T23:06:45.668Z,101107.03
2022-11-16T23:09:16.089Z,101106.78
2022-11-16T23:12:04.852Z,101102.53
2022-11-16T23:14:53.645Z,101105.13
2022-11-16T23:17:23.947Z,101091.25
2022-11-16T23:20:17.458Z,101076.69
2022-11-16T23:23:06.700Z,101097.59
2022-11-16T23:25:55.761Z,101078.72
2022-11-16T23:28:26.432Z,101086.56
2022-11-16T23:30:56.763Z,101078.03
2022-11-16T23:33:44.101Z,101080.53
2022-11-16T23:36:15.017Z,101070.13
2022-11-16T23:38:45.274Z,101076.09
2022-11-16T23:41:33.857Z,101074.22
2022-11-16T23:44:04.348Z,101077.72
2022-11-16T23:46:34.768Z,101060.25
2022-11-16T23:49:05.206Z,101068.19
2022-11-16T23:51:35.505Z,101074.97
2022-11-16T23:54:07.043Z,101067.25
2022-11-16T23:56:37.292Z,101077.38
2022-11-16T23:59:08.126Z,101082.56
